ROMMA est une association bénévole à but non lucratif. Votre soutien est indispensable : ADHERER à ROMMA ou FAIRE un DON

Saint-Vallier-de-Thiey - (06, Alpes-Maritimes)

Côte-d'Azur (723 m)   Longitude: 06° 50' 21" E   Latitude: 43° 42' 8" N Station partenaire n°150
 

Détail journalier du     <<     >>

Température Precipitation Humidité Pression Vent Dir Rafale Dir. rafale
Heure (°C) (mm) (%) (hPa) (km/h) (km/h)
01:00 11.008210111NNE5NE
02:00 10.808110101NNE5NNE
03:00 12.606810093NO16NO
04:00 10.307910102NNO10NE
05:00 9.608610101N6NNO
06:00 9.108910102N6N
07:00 9.309010101NE8NNE
08:00 10.208810102NE6NE
09:00 13.408210111NNE8NNE
10:00 15.907810112SSE6E
11:00 16.707710124SE11SSE
12:00 17.107210124SE15SSE
13:00 18.606410122ESE10SSO
14:00 20.605710124S13S
15:00 21.005210116SE19S
16:00 21.304410116SO19SSO
17:00 21.304410115SO18OSO
18:00 20.205110114S15SSO
19:00 17.006510121SSO6SSO
20:00 14.707410123NNO8NO
21:00 13.107710131NNO5NNO
22:00 12.307810131ONO6NNE
23:00 11.8079101403ONO
minuit 11.307310141ONO6SSO

Graphique du 05-10-2019

 

Serveur OMMA